createdAt,value
2018-03-18T00:01:48.136Z,151.35
2018-03-18T00:04:15.519Z,136.25
2018-03-18T00:06:42.951Z,192.27
2018-03-18T00:09:10.338Z,137.43
2018-03-18T00:11:37.699Z,148.40
2018-03-18T00:14:06.035Z,192.20
2018-03-18T00:16:33.962Z,141.85
2018-03-18T00:19:02.195Z,133.45
2018-03-18T00:21:30.303Z,139.80
2018-03-18T00:23:57.607Z,136.02
2018-03-18T00:26:24.999Z,127.30
2018-03-18T00:28:52.386Z,137.15
2018-03-18T00:31:19.732Z,136.98
2018-03-18T00:33:47.072Z,39.42
2018-03-18T00:36:14.401Z,25.05
2018-03-18T00:38:41.750Z,139.02
2018-03-18T00:41:09.078Z,95.43
2018-03-18T00:43:37.253Z,16.15
2018-03-18T00:46:04.592Z,55.60
2018-03-18T00:48:31.523Z,26.10
2018-03-18T00:50:58.880Z,23.25
2018-03-18T00:53:29.048Z,37.38
2018-03-18T00:55:56.394Z,53.05
2018-03-18T00:58:23.741Z,145.70
2018-03-18T01:00:52.074Z,184.43
2018-03-18T01:03:19.460Z,247.07
2018-03-18T01:05:46.839Z,84.97
2018-03-18T01:08:14.198Z,59.85
2018-03-18T01:10:41.529Z,159.48
2018-03-18T01:13:08.878Z,154.32
2018-03-18T01:15:36.197Z,169.27
2018-03-18T01:18:03.545Z,150.70
2018-03-18T01:20:30.877Z,132.35
2018-03-18T01:22:59.054Z,185.52
2018-03-18T01:25:26.438Z,143.65
2018-03-18T01:27:54.654Z,142.52
2018-03-18T01:30:21.992Z,144.87
2018-03-18T01:32:50.422Z,155.20
2018-03-18T01:35:17.787Z,56.03
2018-03-18T01:37:44.386Z,35.97
2018-03-18T01:40:10.957Z,38.70
2018-03-18T01:42:37.713Z,35.97
2018-03-18T01:45:04.360Z,26.58
2018-03-18T01:47:31.314Z,38.17
2018-03-18T01:49:57.954Z,22.50
2018-03-18T01:52:25.583Z,18.17
2018-03-18T01:54:52.551Z,27.13
2018-03-18T01:57:20.567Z,31.20
2018-03-18T01:59:47.159Z,57.15
2018-03-18T02:02:13.764Z,40.30
2018-03-18T02:04:41.210Z,36.45
2018-03-18T02:07:08.538Z,118.18
2018-03-18T02:09:35.137Z,41.20
2018-03-18T02:12:01.732Z,68.57
2018-03-18T02:14:28.435Z,45.20
2018-03-18T02:16:56.135Z,28.08
2018-03-18T02:19:24.526Z,83.82
2018-03-18T02:21:51.908Z,26.00
2018-03-18T02:24:19.263Z,21.58
2018-03-18T02:26:47.236Z,20.25
2018-03-18T02:29:14.640Z,5.90
2018-03-18T02:31:42.755Z,143.30
2018-03-18T02:34:11.192Z,146.07
2018-03-18T02:36:39.260Z,146.68
2018-03-18T02:39:06.989Z,145.40
2018-03-18T02:41:34.338Z,142.87
2018-03-18T02:44:02.187Z,141.90
2018-03-18T02:46:29.583Z,143.80
2018-03-18T02:48:57.843Z,145.50
2018-03-18T02:51:25.237Z,143.80
2018-03-18T02:53:52.601Z,135.95
2018-03-18T02:56:20.682Z,128.82
2018-03-18T02:58:48.024Z,203.73
2018-03-18T03:01:16.953Z,195.25
2018-03-18T03:03:45.302Z,168.48
2018-03-18T03:06:12.675Z,164.60
2018-03-18T03:08:40.015Z,204.32
2018-03-18T03:11:08.974Z,829.10
2018-03-18T03:13:36.312Z,446.15
2018-03-18T03:16:04.478Z,166.95
2018-03-18T03:18:31.846Z,182.00
2018-03-18T03:20:59.953Z,449.77
2018-03-18T03:23:27.303Z,996.75
2018-03-18T03:25:54.647Z,971.55
2018-03-18T03:28:22.389Z,984.58
2018-03-18T03:30:49.710Z,317.45
2018-03-18T03:33:17.064Z,264.12
2018-03-18T03:35:44.442Z,95.05
2018-03-18T03:38:11.785Z,135.25
2018-03-18T03:40:39.140Z,141.15
2018-03-18T03:43:06.557Z,122.53
2018-03-18T03:45:34.295Z,131.30
2018-03-18T03:48:01.696Z,127.87
2018-03-18T03:50:29.043Z,118.10
2018-03-18T03:52:56.478Z,121.82
2018-03-18T03:55:23.809Z,122.93
2018-03-18T03:57:51.127Z,175.18
2018-03-18T04:00:18.445Z,123.15
2018-03-18T04:02:46.857Z,125.30
2018-03-18T04:05:14.249Z,124.85
2018-03-18T04:07:42.363Z,131.55
2018-03-18T04:10:09.850Z,146.40
2018-03-18T04:12:37.154Z,135.02
2018-03-18T04:15:04.508Z,124.60
2018-03-18T04:17:31.881Z,134.95
2018-03-18T04:19:59.202Z,169.45
2018-03-18T04:22:28.247Z,145.10
2018-03-18T04:24:55.582Z,140.57
2018-03-18T04:27:23.676Z,138.07
2018-03-18T04:29:51.600Z,135.30
2018-03-18T04:32:18.934Z,138.62
2018-03-18T04:34:45.909Z,131.80
2018-03-18T04:37:13.258Z,128.52
2018-03-18T04:39:40.674Z,173.77
2018-03-18T04:42:08.034Z,134.60
2018-03-18T04:44:35.806Z,138.62
2018-03-18T04:47:03.674Z,123.87
2018-03-18T04:49:32.291Z,132.87
2018-03-18T04:52:00.087Z,131.75
2018-03-18T04:54:27.423Z,126.85
2018-03-18T04:56:54.808Z,327.00
2018-03-18T04:59:22.150Z,195.48
2018-03-18T05:01:50.109Z,222.93
2018-03-18T05:04:17.553Z,224.90
2018-03-18T05:06:45.296Z,245.18
2018-03-18T05:09:12.939Z,232.68
2018-03-18T05:11:40.270Z,184.48
2018-03-18T05:14:07.662Z,164.85
2018-03-18T05:16:35.110Z,183.40
2018-03-18T05:19:03.223Z,243.52
2018-03-18T05:21:30.963Z,414.52
2018-03-18T05:23:59.296Z,321.15
2018-03-18T05:26:25.974Z,437.05
2018-03-18T05:28:52.563Z,403.50
2018-03-18T05:31:19.175Z,423.08
2018-03-18T05:33:46.532Z,424.15
2018-03-18T05:36:15.481Z,425.80
2018-03-18T05:38:42.125Z,451.87
2018-03-18T05:41:08.918Z,428.40
2018-03-18T05:43:35.499Z,420.67
2018-03-18T05:46:02.095Z,413.35
2018-03-18T05:48:28.782Z,414.45
2018-03-18T05:50:56.116Z,411.08
2018-03-18T05:53:22.703Z,417.80
2018-03-18T05:55:50.107Z,414.20
2018-03-18T05:58:17.658Z,410.50
2018-03-18T06:00:45.435Z,317.20
2018-03-18T06:03:12.032Z,434.37
2018-03-18T06:05:39.349Z,435.37
2018-03-18T06:08:05.939Z,421.12
2018-03-18T06:10:32.602Z,420.65
2018-03-18T06:12:59.210Z,413.25
2018-03-18T06:15:25.799Z,430.87
2018-03-18T06:17:53.118Z,415.08
2018-03-18T06:20:20.057Z,409.75
2018-03-18T06:22:47.649Z,427.55
2018-03-18T06:25:14.987Z,436.55
2018-03-18T06:27:41.605Z,394.17
2018-03-18T06:30:08.203Z,301.70
2018-03-18T06:32:36.198Z,247.65
2018-03-18T06:35:02.857Z,356.20
2018-03-18T06:37:30.472Z,433.52
2018-03-18T06:39:57.810Z,300.52
2018-03-18T06:42:24.380Z,412.58
2018-03-18T06:44:51.011Z,422.63
2018-03-18T06:47:18.296Z,136.05
2018-03-18T06:49:45.604Z,120.18
2018-03-18T06:52:12.562Z,265.70
2018-03-18T06:54:39.251Z,178.80
2018-03-18T06:57:06.774Z,395.08
2018-03-18T06:59:33.364Z,413.00
2018-03-18T07:02:00.919Z,402.40
2018-03-18T07:04:28.376Z,414.92
2018-03-18T07:06:55.834Z,405.85
2018-03-18T07:09:23.178Z,395.33
2018-03-18T07:11:49.751Z,316.00
2018-03-18T07:14:16.373Z,465.48
2018-03-18T07:16:43.007Z,464.77
2018-03-18T07:19:09.625Z,461.42
2018-03-18T07:21:36.195Z,467.40
2018-03-18T07:24:02.834Z,470.42
2018-03-18T07:26:29.475Z,474.65
2018-03-18T07:28:56.067Z,474.02
2018-03-18T07:31:22.661Z,475.58
2018-03-18T07:33:49.251Z,471.58
2018-03-18T07:36:15.863Z,482.40
2018-03-18T07:38:42.502Z,472.40
2018-03-18T07:41:09.119Z,471.30
2018-03-18T07:43:35.701Z,478.50
2018-03-18T07:46:03.111Z,482.12
2018-03-18T07:48:30.696Z,476.40
2018-03-18T07:50:57.295Z,479.65
2018-03-18T07:53:24.698Z,478.88
2018-03-18T07:55:51.355Z,471.80
2018-03-18T07:58:18.084Z,489.92
2018-03-18T08:00:44.749Z,487.98
2018-03-18T08:03:11.404Z,496.73
2018-03-18T08:05:38.002Z,489.77
2018-03-18T08:08:04.586Z,475.90
2018-03-18T08:10:31.863Z,490.08
2018-03-18T08:12:58.485Z,491.45
2018-03-18T08:15:25.087Z,486.23
2018-03-18T08:17:52.378Z,489.80
2018-03-18T08:20:19.293Z,501.20
2018-03-18T08:22:45.969Z,494.20
2018-03-18T08:25:13.608Z,485.13
2018-03-18T08:27:40.354Z,499.05
2018-03-18T08:30:07.109Z,496.20
2018-03-18T08:32:33.847Z,498.77
2018-03-18T08:35:00.432Z,487.48
2018-03-18T08:37:27.004Z,497.77
2018-03-18T08:39:53.907Z,507.15
2018-03-18T08:42:27.451Z,499.12
2018-03-18T08:44:54.082Z,391.98
2018-03-18T08:47:20.683Z,500.92
2018-03-18T08:49:48.261Z,508.40
2018-03-18T08:52:14.925Z,508.45
2018-03-18T08:54:43.055Z,511.08
2018-03-18T08:57:10.415Z,528.40
2018-03-18T08:59:37.779Z,521.12
2018-03-18T09:02:04.453Z,522.72
2018-03-18T09:04:31.673Z,529.70
2018-03-18T09:06:58.348Z,481.52
2018-03-18T09:09:25.009Z,345.12
2018-03-18T09:11:51.633Z,453.27
2018-03-18T09:14:19.037Z,361.00
2018-03-18T09:16:45.686Z,449.10
2018-03-18T09:19:12.584Z,466.75
2018-03-18T09:21:39.278Z,444.90
2018-03-18T09:24:05.940Z,442.12
2018-03-18T09:26:32.591Z,443.52
2018-03-18T09:28:59.611Z,462.55
2018-03-18T09:31:26.203Z,448.50
2018-03-18T09:33:53.319Z,455.48
2018-03-18T09:36:19.935Z,447.30
2018-03-18T09:38:46.623Z,456.95
2018-03-18T09:41:13.270Z,471.00
2018-03-18T09:43:40.620Z,475.02
2018-03-18T09:46:07.909Z,481.13
2018-03-18T09:48:35.252Z,486.90
2018-03-18T09:51:01.818Z,313.98
2018-03-18T09:53:29.127Z,532.00
2018-03-18T09:55:56.459Z,536.40
2018-03-18T09:58:24.837Z,527.92
2018-03-18T10:00:51.538Z,530.00
2018-03-18T10:03:18.109Z,534.35
2018-03-18T10:05:44.728Z,538.42
2018-03-18T10:08:11.373Z,545.22
2018-03-18T10:10:38.034Z,553.85
2018-03-18T10:13:05.379Z,556.10
2018-03-18T10:15:33.597Z,550.75
2018-03-18T10:18:00.229Z,554.03
2018-03-18T10:20:26.956Z,543.60
2018-03-18T10:22:53.525Z,533.25
2018-03-18T10:25:21.981Z,540.45
2018-03-18T10:27:48.606Z,526.50
2018-03-18T10:30:15.941Z,519.30
2018-03-18T10:32:42.533Z,517.92
2018-03-18T10:35:09.718Z,507.12
2018-03-18T10:37:36.857Z,496.55
2018-03-18T10:40:03.556Z,509.50
2018-03-18T10:42:30.214Z,511.95
2018-03-18T10:44:57.671Z,502.37
2018-03-18T10:47:26.206Z,499.25
2018-03-18T10:49:52.783Z,575.35
2018-03-18T10:52:19.400Z,572.60
2018-03-18T10:54:46.032Z,570.10
2018-03-18T10:57:12.646Z,526.65
2018-03-18T10:59:40.008Z,516.38
2018-03-18T11:02:13.329Z,554.78
2018-03-18T11:04:39.942Z,541.75
2018-03-18T11:07:07.299Z,547.40
2018-03-18T11:09:34.642Z,541.95
2018-03-18T11:12:01.973Z,530.80
2018-03-18T11:14:29.339Z,518.17
2018-03-18T11:16:55.942Z,510.48
2018-03-18T11:19:22.579Z,475.45
2018-03-18T11:21:50.038Z,525.90
2018-03-18T11:24:16.677Z,506.70
2018-03-18T11:26:43.288Z,482.15
2018-03-18T11:29:10.912Z,514.08
2018-03-18T11:31:38.219Z,520.92
2018-03-18T11:34:04.867Z,530.15
2018-03-18T11:36:31.782Z,526.37
2018-03-18T11:38:58.403Z,513.45
2018-03-18T11:41:25.042Z,517.08
2018-03-18T11:43:52.418Z,507.60
2018-03-18T11:46:19.706Z,515.80
2018-03-18T11:48:46.372Z,517.25
2018-03-18T11:51:13.767Z,527.85
2018-03-18T11:53:40.444Z,538.10
2018-03-18T11:56:07.051Z,522.17
2018-03-18T11:58:33.664Z,521.50
2018-03-18T12:01:00.284Z,538.10
2018-03-18T12:03:27.671Z,585.63
2018-03-18T12:05:54.903Z,538.55
2018-03-18T12:08:40.713Z,524.72
2018-03-18T12:11:08.007Z,646.53
2018-03-18T12:13:34.737Z,838.72
2018-03-18T12:16:02.201Z,508.20
2018-03-18T12:18:29.693Z,515.25
2018-03-18T12:20:56.555Z,519.47
2018-03-18T12:23:23.957Z,518.60
2018-03-18T12:25:50.691Z,527.90
2018-03-18T12:28:17.338Z,534.97
2018-03-18T12:30:43.995Z,544.47
2018-03-18T12:33:11.596Z,543.30
2018-03-18T12:35:38.239Z,536.58
2018-03-18T12:38:04.875Z,526.37
2018-03-18T12:40:33.094Z,525.35
2018-03-18T12:43:18.285Z,518.97
2018-03-18T12:45:46.104Z,540.72
2018-03-18T12:48:14.354Z,537.58
2018-03-18T12:50:40.955Z,527.30
2018-03-18T12:53:07.644Z,514.55
2018-03-18T12:55:35.100Z,539.58
2018-03-18T12:58:01.756Z,538.55
2018-03-18T13:00:28.321Z,550.78
2018-03-18T13:02:54.988Z,554.60
2018-03-18T13:05:21.659Z,555.72
2018-03-18T13:07:48.279Z,550.38
2018-03-18T13:10:14.974Z,557.55
2018-03-18T13:12:42.323Z,554.38
2018-03-18T13:15:09.641Z,547.70
2018-03-18T13:17:36.276Z,560.50
2018-03-18T13:20:02.982Z,542.37
2018-03-18T13:22:30.204Z,544.53
2018-03-18T13:24:57.625Z,545.67
2018-03-18T13:27:25.009Z,544.88
2018-03-18T13:29:51.657Z,539.53
2018-03-18T13:32:19.649Z,547.70
2018-03-18T13:34:47.016Z,543.58
2018-03-18T13:37:13.911Z,528.72
2018-03-18T13:39:40.603Z,532.47
2018-03-18T13:42:07.231Z,519.55
2018-03-18T13:44:34.051Z,530.50
2018-03-18T13:47:00.696Z,533.83
2018-03-18T13:49:28.847Z,511.10
2018-03-18T13:51:56.459Z,522.50
2018-03-18T13:54:23.134Z,520.88
2018-03-18T13:56:50.524Z,522.42
2018-03-18T13:59:17.147Z,535.53
2018-03-18T14:01:44.529Z,529.08
2018-03-18T14:04:12.079Z,514.33
2018-03-18T14:06:38.696Z,516.78
2018-03-18T14:09:06.083Z,515.03
2018-03-18T14:11:32.814Z,470.75
2018-03-18T14:13:59.456Z,512.58
2018-03-18T14:16:26.117Z,483.80
2018-03-18T14:18:54.135Z,513.47
2018-03-18T14:21:21.384Z,532.55
2018-03-18T14:23:48.120Z,536.72
2018-03-18T14:26:15.541Z,540.88
2018-03-18T14:28:42.186Z,545.15
2018-03-18T14:31:08.828Z,539.80
2018-03-18T14:33:36.194Z,552.70
2018-03-18T14:36:03.032Z,537.65
2018-03-18T14:38:30.479Z,546.28
2018-03-18T14:40:57.198Z,557.12
2018-03-18T14:43:23.826Z,538.53
2018-03-18T14:45:50.754Z,537.17
2018-03-18T14:48:17.404Z,534.25
2018-03-18T14:50:44.001Z,537.12
2018-03-18T14:53:11.365Z,531.25
2018-03-18T14:55:38.707Z,536.67
2018-03-18T14:58:06.133Z,520.03
2018-03-18T15:00:33.670Z,531.50
2018-03-18T15:03:00.346Z,531.92
2018-03-18T15:05:27.026Z,520.12
2018-03-18T15:07:53.654Z,522.37
2018-03-18T15:10:21.013Z,519.05
2018-03-18T15:12:48.518Z,512.17
2018-03-18T15:15:15.531Z,517.50
2018-03-18T15:17:42.138Z,516.62
2018-03-18T15:20:08.735Z,523.80
2018-03-18T15:22:35.443Z,519.35
2018-03-18T15:25:02.100Z,551.35
2018-03-18T15:27:28.860Z,485.20
2018-03-18T15:29:55.507Z,494.35
2018-03-18T15:32:23.192Z,489.00
2018-03-18T15:34:50.562Z,497.33
2018-03-18T15:37:18.627Z,493.20
2018-03-18T15:39:45.991Z,499.90
2018-03-18T15:42:12.579Z,500.23
2018-03-18T15:44:39.302Z,502.83
2018-03-18T15:47:05.966Z,498.02
2018-03-18T15:49:32.603Z,491.98
2018-03-18T15:51:59.242Z,480.95
2018-03-18T15:54:25.900Z,475.58
2018-03-18T15:56:52.563Z,507.17
2018-03-18T15:59:20.147Z,508.40
2018-03-18T16:01:48.444Z,517.70
2018-03-18T16:04:15.116Z,496.42
2018-03-18T16:06:41.770Z,482.80
2018-03-18T16:09:08.731Z,491.58
2018-03-18T16:11:35.374Z,481.10
2018-03-18T16:14:02.050Z,494.02
2018-03-18T16:16:28.676Z,560.00
2018-03-18T16:18:56.047Z,531.37
2018-03-18T16:21:22.923Z,536.90
2018-03-18T16:23:49.563Z,533.60
2018-03-18T16:26:16.170Z,533.12
2018-03-18T16:28:42.764Z,532.45
2018-03-18T16:31:15.022Z,527.70
2018-03-18T16:33:41.681Z,539.42
2018-03-18T16:36:09.100Z,512.45
2018-03-18T16:38:35.772Z,526.95
2018-03-18T16:41:02.409Z,527.30
2018-03-18T16:43:29.131Z,539.78
2018-03-18T16:45:56.347Z,534.00
2018-03-18T16:48:23.688Z,528.83
2018-03-18T16:50:50.376Z,531.55
2018-03-18T16:53:16.999Z,536.53
2018-03-18T16:55:43.652Z,536.78
2018-03-18T16:58:10.976Z,529.40
2018-03-18T17:00:38.350Z,534.72
2018-03-18T17:03:05.010Z,534.50
2018-03-18T17:05:31.675Z,533.85
2018-03-18T17:07:59.078Z,533.75
2018-03-18T17:10:25.722Z,529.67
2018-03-18T17:12:52.373Z,541.75
2018-03-18T17:15:18.987Z,538.12
2018-03-18T17:17:46.324Z,539.35
2018-03-18T17:20:12.986Z,534.60
2018-03-18T17:22:39.627Z,541.50
2018-03-18T17:25:07.033Z,535.37
2018-03-18T17:27:33.726Z,530.80
2018-03-18T17:30:00.450Z,531.47
2018-03-18T17:32:27.043Z,528.40
2018-03-18T17:34:53.667Z,526.90
2018-03-18T17:37:20.259Z,528.95
2018-03-18T17:39:46.923Z,532.12
2018-03-18T17:42:13.568Z,525.55
2018-03-18T17:44:58.697Z,535.20
2018-03-18T17:47:43.654Z,530.17
2018-03-18T18:03:43.041Z,519.88
2018-03-18T18:06:10.353Z,524.95
2018-03-18T18:08:38.016Z,528.62
2018-03-18T18:11:04.665Z,537.55
2018-03-18T18:13:31.258Z,532.38
2018-03-18T18:15:57.903Z,528.70
2018-03-18T18:18:24.521Z,518.08
2018-03-18T18:20:51.189Z,530.33
2018-03-18T18:23:18.167Z,547.25
2018-03-18T18:25:45.575Z,532.50
2018-03-18T18:28:12.448Z,515.38
2018-03-18T18:30:39.072Z,526.72
2018-03-18T18:33:05.665Z,514.87
2018-03-18T18:35:33.642Z,518.03
2018-03-18T18:38:00.993Z,507.40
2018-03-18T18:40:27.622Z,533.60
2018-03-18T18:42:55.012Z,525.78
2018-03-18T18:45:21.659Z,526.50
2018-03-18T18:47:48.331Z,532.60
2018-03-18T18:50:15.016Z,528.00
2018-03-18T18:52:41.668Z,524.30
2018-03-18T18:55:08.235Z,534.10
2018-03-18T18:57:34.841Z,524.22
2018-03-18T19:00:01.482Z,516.72
2018-03-18T19:02:28.150Z,514.83
2018-03-18T19:04:55.544Z,508.48
2018-03-18T19:07:22.922Z,509.52
2018-03-18T19:09:51.897Z,520.28
2018-03-18T19:12:18.575Z,513.60
2018-03-18T19:14:45.196Z,516.95
2018-03-18T19:17:11.852Z,506.35
2018-03-18T19:19:38.512Z,515.22
2018-03-18T19:22:05.227Z,511.80
2018-03-18T19:24:31.916Z,508.90
2018-03-18T19:26:58.523Z,506.08
2018-03-18T19:29:25.144Z,504.45
2018-03-18T19:31:51.757Z,505.70
2018-03-18T19:34:18.372Z,500.83
2018-03-18T19:36:45.745Z,511.58
2018-03-18T19:39:12.375Z,501.15
2018-03-18T19:41:39.090Z,481.80
2018-03-18T19:44:06.443Z,511.05
2018-03-18T19:46:33.144Z,479.00
2018-03-18T19:49:00.733Z,509.58
2018-03-18T19:51:28.082Z,484.85
2018-03-18T19:53:54.774Z,489.90
2018-03-18T19:56:22.212Z,486.80
2018-03-18T19:58:48.834Z,500.45
2018-03-18T20:01:16.245Z,502.88
2018-03-18T20:03:42.797Z,499.65
2018-03-18T20:06:09.389Z,508.87
2018-03-18T20:08:36.371Z,510.42
2018-03-18T20:11:03.023Z,505.08
2018-03-18T20:13:30.570Z,510.70
2018-03-18T20:15:58.033Z,495.25
2018-03-18T20:18:24.614Z,508.35
2018-03-18T20:20:51.353Z,487.83
2018-03-18T20:23:17.964Z,495.17
2018-03-18T20:25:44.574Z,502.92
2018-03-18T20:28:11.194Z,508.90
2018-03-18T20:30:37.819Z,499.90
2018-03-18T20:33:04.430Z,501.05
2018-03-18T20:35:31.051Z,502.27
2018-03-18T20:37:58.427Z,502.30
2018-03-18T20:40:25.016Z,501.95
2018-03-18T20:42:51.651Z,503.00
2018-03-18T20:45:18.246Z,499.55
2018-03-18T20:47:44.912Z,511.38
2018-03-18T20:50:11.528Z,509.63
2018-03-18T20:52:38.130Z,504.30
2018-03-18T20:55:05.473Z,510.27
2018-03-18T20:57:32.524Z,505.85
2018-03-18T20:59:59.163Z,515.08
2018-03-18T21:02:26.540Z,515.60
2018-03-18T21:04:53.258Z,511.83
2018-03-18T21:07:20.893Z,520.15
2018-03-18T21:09:47.699Z,518.87
2018-03-18T21:12:14.290Z,517.03
2018-03-18T21:14:41.656Z,524.35
2018-03-18T21:17:08.998Z,524.22
2018-03-18T21:19:35.918Z,529.90
2018-03-18T21:22:03.277Z,516.50
2018-03-18T21:24:29.877Z,528.72
2018-03-18T21:26:56.510Z,516.95
2018-03-18T21:29:23.095Z,512.70
2018-03-18T21:31:49.671Z,518.97
2018-03-18T21:34:16.280Z,526.35
2018-03-18T21:36:42.890Z,516.47
2018-03-18T21:39:09.507Z,518.78
2018-03-18T21:41:37.399Z,511.75
2018-03-18T21:44:04.959Z,510.73
2018-03-18T21:46:32.675Z,174.80
2018-03-18T21:48:59.257Z,45.25
2018-03-18T21:51:25.887Z,217.68
2018-03-18T21:53:52.546Z,280.75
2018-03-18T21:56:19.186Z,439.60
2018-03-18T21:58:45.795Z,436.25
2018-03-18T22:01:12.408Z,445.30
2018-03-18T22:03:39.021Z,455.90
2018-03-18T22:06:06.606Z,461.60
2018-03-18T22:08:33.195Z,454.65
2018-03-18T22:10:59.784Z,445.58
2018-03-18T22:13:26.382Z,454.30
2018-03-18T22:15:53.003Z,455.30
2018-03-18T22:18:20.345Z,459.33
2018-03-18T22:20:46.946Z,361.17
2018-03-18T22:23:13.538Z,445.12
2018-03-18T22:25:41.754Z,454.77
2018-03-18T22:28:08.629Z,454.52
2018-03-18T22:30:35.280Z,449.33
2018-03-18T22:33:01.903Z,426.00
2018-03-18T22:35:28.602Z,438.27
2018-03-18T22:37:55.194Z,448.60
2018-03-18T22:40:22.891Z,447.15
2018-03-18T22:42:49.495Z,446.80
2018-03-18T22:45:16.809Z,451.65
2018-03-18T22:47:44.146Z,452.60
2018-03-18T22:50:10.774Z,448.60
2018-03-18T22:52:38.092Z,444.98
2018-03-18T22:55:04.675Z,459.25
2018-03-18T22:57:31.251Z,459.00
2018-03-18T22:59:57.861Z,456.30
2018-03-18T23:02:24.459Z,456.52
2018-03-18T23:04:51.067Z,453.10
2018-03-18T23:07:17.652Z,457.45
2018-03-18T23:09:44.263Z,476.92
2018-03-18T23:12:11.603Z,458.67
2018-03-18T23:14:38.201Z,447.83
2018-03-18T23:17:04.790Z,433.80
2018-03-18T23:19:32.128Z,454.40
2018-03-18T23:21:59.438Z,451.98
2018-03-18T23:24:26.013Z,454.52
2018-03-18T23:26:52.582Z,466.92
2018-03-18T23:29:19.889Z,464.45
2018-03-18T23:31:46.484Z,442.75
2018-03-18T23:34:13.044Z,448.50
2018-03-18T23:36:39.622Z,450.33
2018-03-18T23:39:06.219Z,459.95
2018-03-18T23:41:32.828Z,457.50
2018-03-18T23:43:59.446Z,452.83
2018-03-18T23:46:26.779Z,443.13
2018-03-18T23:48:53.339Z,441.00
2018-03-18T23:51:20.677Z,447.52
2018-03-18T23:53:47.338Z,327.95
2018-03-18T23:56:13.951Z,458.38
2018-03-18T23:58:40.503Z,460.30
